sensor_id;sensor_type;location;lat;lon;timestamp;P1;durP1;ratioP1;P2;durP2;ratioP2
3369;SDS011;42042;51.948;7.628;2023-04-24T00:01:22;2.50;;;2.30;;
3369;SDS011;42042;51.948;7.628;2023-04-24T00:03:49;1.93;;;1.83;;
3369;SDS011;42042;51.948;7.628;2023-04-24T00:06:16;2.27;;;2.10;;
3369;SDS011;42042;51.948;7.628;2023-04-24T00:08:45;2.00;;;1.90;;
3369;SDS011;42042;51.948;7.628;2023-04-24T00:11:12;2.27;;;2.00;;
3369;SDS011;42042;51.948;7.628;2023-04-24T00:13:39;2.20;;;2.00;;
3369;SDS011;42042;51.948;7.628;2023-04-24T00:16:06;1.80;;;1.70;;
3369;SDS011;42042;51.948;7.628;2023-04-24T00:18:34;2.43;;;1.90;;
3369;SDS011;42042;51.948;7.628;2023-04-24T00:21:01;2.00;;;1.90;;
3369;SDS011;42042;51.948;7.628;2023-04-24T00:23:28;1.70;;;1.60;;
3369;SDS011;42042;51.948;7.628;2023-04-24T00:25:57;2.30;;;2.10;;
3369;SDS011;42042;51.948;7.628;2023-04-24T00:28:24;42.00;;;3.00;;
3369;SDS011;42042;51.948;7.628;2023-04-24T00:30:51;2.17;;;1.63;;
3369;SDS011;42042;51.948;7.628;2023-04-24T00:33:18;2.27;;;1.63;;
3369;SDS011;42042;51.948;7.628;2023-04-24T00:35:46;1.83;;;1.73;;
3369;SDS011;42042;51.948;7.628;2023-04-24T00:38:13;1.87;;;1.40;;
3369;SDS011;42042;51.948;7.628;2023-04-24T00:40:40;2.27;;;1.50;;
3369;SDS011;42042;51.948;7.628;2023-04-24T00:43:08;4.47;;;1.63;;
3369;SDS011;42042;51.948;7.628;2023-04-24T00:45:36;2.00;;;1.90;;
3369;SDS011;42042;51.948;7.628;2023-04-24T00:48:03;1.60;;;1.50;;
3369;SDS011;42042;51.948;7.628;2023-04-24T00:50:30;2.37;;;1.90;;
3369;SDS011;42042;51.948;7.628;2023-04-24T00:52:58;4.03;;;1.73;;
3369;SDS011;42042;51.948;7.628;2023-04-24T00:55:25;2.30;;;1.80;;
3369;SDS011;42042;51.948;7.628;2023-04-24T00:57:53;2.20;;;2.00;;
3369;SDS011;42042;51.948;7.628;2023-04-24T01:00:21;2.33;;;1.77;;
3369;SDS011;42042;51.948;7.628;2023-04-24T01:02:48;1.70;;;1.60;;
3369;SDS011;42042;51.948;7.628;2023-04-24T01:05:16;2.43;;;2.23;;
3369;SDS011;42042;51.948;7.628;2023-04-24T01:07:45;2.07;;;1.50;;
3369;SDS011;42042;51.948;7.628;2023-04-24T01:10:14;2.30;;;2.13;;
3369;SDS011;42042;51.948;7.628;2023-04-24T01:12:42;1.97;;;1.87;;
3369;SDS011;42042;51.948;7.628;2023-04-24T01:15:09;2.57;;;1.60;;
3369;SDS011;42042;51.948;7.628;2023-04-24T01:17:39;2.57;;;1.80;;
3369;SDS011;42042;51.948;7.628;2023-04-24T01:20:06;2.50;;;1.83;;
3369;SDS011;42042;51.948;7.628;2023-04-24T01:22:35;2.13;;;1.53;;
3369;SDS011;42042;51.948;7.628;2023-04-24T01:25:02;2.53;;;2.33;;
3369;SDS011;42042;51.948;7.628;2023-04-24T01:27:30;2.20;;;2.10;;
3369;SDS011;42042;51.948;7.628;2023-04-24T01:29:58;1.80;;;1.70;;
3369;SDS011;42042;51.948;7.628;2023-04-24T01:32:25;2.30;;;2.00;;
3369;SDS011;42042;51.948;7.628;2023-04-24T01:34:52;4.83;;;1.80;;
3369;SDS011;42042;51.948;7.628;2023-04-24T01:37:20;1.70;;;1.60;;
3369;SDS011;42042;51.948;7.628;2023-04-24T01:39:48;2.20;;;2.00;;
3369;SDS011;42042;51.948;7.628;2023-04-24T01:42:16;2.40;;;1.93;;
3369;SDS011;42042;51.948;7.628;2023-04-24T01:44:43;5.33;;;1.80;;
3369;SDS011;42042;51.948;7.628;2023-04-24T01:47:10;2.60;;;2.40;;
3369;SDS011;42042;51.948;7.628;2023-04-24T01:49:38;1.87;;;1.77;;
3369;SDS011;42042;51.948;7.628;2023-04-24T01:52:06;2.20;;;2.10;;
3369;SDS011;42042;51.948;7.628;2023-04-24T01:54:33;3.83;;;2.00;;
3369;SDS011;42042;51.948;7.628;2023-04-24T01:57:01;2.10;;;2.00;;
3369;SDS011;42042;51.948;7.628;2023-04-24T01:59:29;2.70;;;2.60;;
3369;SDS011;42042;51.948;7.628;2023-04-24T02:01:56;2.77;;;2.57;;
3369;SDS011;42042;51.948;7.628;2023-04-24T02:04:23;5.93;;;2.83;;
3369;SDS011;42042;51.948;7.628;2023-04-24T02:06:51;3.03;;;2.80;;
3369;SDS011;42042;51.948;7.628;2023-04-24T02:09:18;8.20;;;2.67;;
3369;SDS011;42042;51.948;7.628;2023-04-24T02:11:45;4.00;;;3.10;;
3369;SDS011;42042;51.948;7.628;2023-04-24T02:14:13;3.10;;;2.90;;
3369;SDS011;42042;51.948;7.628;2023-04-24T02:16:41;6.07;;;3.10;;
3369;SDS011;42042;51.948;7.628;2023-04-24T02:19:08;4.10;;;3.70;;
3369;SDS011;42042;51.948;7.628;2023-04-24T02:21:36;4.10;;;3.80;;
3369;SDS011;42042;51.948;7.628;2023-04-24T02:24:03;7.00;;;4.07;;
3369;SDS011;42042;51.948;7.628;2023-04-24T02:26:30;3.80;;;3.50;;
3369;SDS011;42042;51.948;7.628;2023-04-24T02:28:57;3.60;;;3.33;;
3369;SDS011;42042;51.948;7.628;2023-04-24T02:31:26;3.70;;;3.40;;
3369;SDS011;42042;51.948;7.628;2023-04-24T02:33:53;3.70;;;3.40;;
3369;SDS011;42042;51.948;7.628;2023-04-24T02:36:20;3.53;;;3.23;;
3369;SDS011;42042;51.948;7.628;2023-04-24T02:38:47;3.80;;;2.80;;
3369;SDS011;42042;51.948;7.628;2023-04-24T02:41:15;4.67;;;3.20;;
3369;SDS011;42042;51.948;7.628;2023-04-24T02:43:42;4.20;;;3.70;;
3369;SDS011;42042;51.948;7.628;2023-04-24T02:46:09;3.50;;;3.20;;
3369;SDS011;42042;51.948;7.628;2023-04-24T02:48:38;3.87;;;3.00;;
3369;SDS011;42042;51.948;7.628;2023-04-24T02:51:05;4.17;;;3.87;;
3369;SDS011;42042;51.948;7.628;2023-04-24T02:53:32;3.97;;;3.60;;
3369;SDS011;42042;51.948;7.628;2023-04-24T02:55:59;4.67;;;4.20;;
3369;SDS011;42042;51.948;7.628;2023-04-24T02:58:26;4.77;;;4.13;;
3369;SDS011;42042;51.948;7.628;2023-04-24T03:00:54;6.50;;;4.50;;
3369;SDS011;42042;51.948;7.628;2023-04-24T03:03:21;5.40;;;5.00;;
3369;SDS011;42042;51.948;7.628;2023-04-24T03:05:50;5.20;;;4.70;;
3369;SDS011;42042;51.948;7.628;2023-04-24T03:08:17;4.17;;;3.87;;
3369;SDS011;42042;51.948;7.628;2023-04-24T03:10:44;5.07;;;4.67;;
3369;SDS011;42042;51.948;7.628;2023-04-24T03:13:11;5.60;;;5.10;;
3369;SDS011;42042;51.948;7.628;2023-04-24T03:15:39;6.93;;;5.87;;
3369;SDS011;42042;51.948;7.628;2023-04-24T03:18:06;12.57;;;5.97;;
3369;SDS011;42042;51.948;7.628;2023-04-24T03:20:33;7.17;;;6.37;;
3369;SDS011;42042;51.948;7.628;2023-04-24T03:23:03;6.67;;;6.10;;
3369;SDS011;42042;51.948;7.628;2023-04-24T03:25:30;6.53;;;5.90;;
3369;SDS011;42042;51.948;7.628;2023-04-24T03:27:57;8.37;;;7.00;;
3369;SDS011;42042;51.948;7.628;2023-04-24T03:30:24;10.30;;;6.93;;
3369;SDS011;42042;51.948;7.628;2023-04-24T03:32:52;7.63;;;6.70;;
3369;SDS011;42042;51.948;7.628;2023-04-24T03:35:19;8.57;;;7.33;;
3369;SDS011;42042;51.948;7.628;2023-04-24T03:37:47;7.43;;;6.83;;
3369;SDS011;42042;51.948;7.628;2023-04-24T03:40:15;8.97;;;7.07;;
3369;SDS011;42042;51.948;7.628;2023-04-24T03:42:43;7.77;;;7.07;;
3369;SDS011;42042;51.948;7.628;2023-04-24T03:45:10;7.67;;;6.87;;
3369;SDS011;42042;51.948;7.628;2023-04-24T03:47:37;10.03;;;6.90;;
3369;SDS011;42042;51.948;7.628;2023-04-24T03:50:04;9.43;;;8.23;;
3369;SDS011;42042;51.948;7.628;2023-04-24T03:52:32;11.00;;;8.17;;
3369;SDS011;42042;51.948;7.628;2023-04-24T03:54:59;10.50;;;9.53;;
3369;SDS011;42042;51.948;7.628;2023-04-24T03:57:27;12.00;;;8.90;;
3369;SDS011;42042;51.948;7.628;2023-04-24T03:59:55;10.10;;;9.10;;
3369;SDS011;42042;51.948;7.628;2023-04-24T04:02:22;10.57;;;9.47;;
3369;SDS011;42042;51.948;7.628;2023-04-24T04:04:49;11.30;;;9.27;;
3369;SDS011;42042;51.948;7.628;2023-04-24T04:07:16;12.27;;;9.23;;
3369;SDS011;42042;51.948;7.628;2023-04-24T04:09:43;12.03;;;10.30;;
3369;SDS011;42042;51.948;7.628;2023-04-24T04:12:11;11.80;;;10.50;;
3369;SDS011;42042;51.948;7.628;2023-04-24T04:14:40;12.33;;;11.07;;
3369;SDS011;42042;51.948;7.628;2023-04-24T04:17:07;13.43;;;12.03;;
3369;SDS011;42042;51.948;7.628;2023-04-24T04:19:34;15.63;;;11.10;;
3369;SDS011;42042;51.948;7.628;2023-04-24T04:22:02;12.07;;;10.77;;
3369;SDS011;42042;51.948;7.628;2023-04-24T04:24:29;14.83;;;12.53;;
3369;SDS011;42042;51.948;7.628;2023-04-24T04:26:56;15.57;;;10.77;;
3369;SDS011;42042;51.948;7.628;2023-04-24T04:29:23;13.07;;;11.20;;
3369;SDS011;42042;51.948;7.628;2023-04-24T04:31:52;14.80;;;13.20;;
3369;SDS011;42042;51.948;7.628;2023-04-24T04:34:20;16.60;;;12.80;;
3369;SDS011;42042;51.948;7.628;2023-04-24T04:36:47;16.38;;;13.75;;
3369;SDS011;42042;51.948;7.628;2023-04-24T04:39:15;16.60;;;12.30;;
3369;SDS011;42042;51.948;7.628;2023-04-24T04:41:43;21.53;;;15.87;;
3369;SDS011;42042;51.948;7.628;2023-04-24T04:44:11;15.67;;;13.27;;
3369;SDS011;42042;51.948;7.628;2023-04-24T04:46:39;20.00;;;14.40;;
3369;SDS011;42042;51.948;7.628;2023-04-24T04:49:08;20.20;;;14.53;;
3369;SDS011;42042;51.948;7.628;2023-04-24T04:51:35;19.40;;;15.47;;
3369;SDS011;42042;51.948;7.628;2023-04-24T04:54:03;21.57;;;14.73;;
3369;SDS011;42042;51.948;7.628;2023-04-24T04:56:30;24.73;;;15.30;;
3369;SDS011;42042;51.948;7.628;2023-04-24T04:58:57;18.27;;;16.13;;
3369;SDS011;42042;51.948;7.628;2023-04-24T05:01:24;19.20;;;15.53;;
3369;SDS011;42042;51.948;7.628;2023-04-24T05:03:52;24.60;;;15.40;;
3369;SDS011;42042;51.948;7.628;2023-04-24T05:06:21;20.70;;;16.90;;
3369;SDS011;42042;51.948;7.628;2023-04-24T05:08:48;21.97;;;15.33;;
3369;SDS011;42042;51.948;7.628;2023-04-24T05:11:16;19.73;;;15.90;;
3369;SDS011;42042;51.948;7.628;2023-04-24T05:13:43;20.67;;;15.70;;
3369;SDS011;42042;51.948;7.628;2023-04-24T05:16:10;22.77;;;17.43;;
3369;SDS011;42042;51.948;7.628;2023-04-24T05:18:37;18.90;;;14.77;;
3369;SDS011;42042;51.948;7.628;2023-04-24T05:21:11;20.87;;;16.00;;
3369;SDS011;42042;51.948;7.628;2023-04-24T05:23:39;23.60;;;17.10;;
3369;SDS011;42042;51.948;7.628;2023-04-24T05:26:07;22.33;;;16.40;;
3369;SDS011;42042;51.948;7.628;2023-04-24T05:28:34;20.90;;;16.50;;
3369;SDS011;42042;51.948;7.628;2023-04-24T05:31:01;20.10;;;16.07;;
3369;SDS011;42042;51.948;7.628;2023-04-24T05:33:29;21.13;;;16.40;;
3369;SDS011;42042;51.948;7.628;2023-04-24T05:35:56;23.33;;;16.90;;
3369;SDS011;42042;51.948;7.628;2023-04-24T05:38:23;21.47;;;17.40;;
3369;SDS011;42042;51.948;7.628;2023-04-24T05:40:52;23.17;;;17.43;;
3369;SDS011;42042;51.948;7.628;2023-04-24T05:43:19;23.80;;;17.07;;
3369;SDS011;42042;51.948;7.628;2023-04-24T05:45:46;17.17;;;15.40;;
3369;SDS011;42042;51.948;7.628;2023-04-24T05:48:13;20.70;;;14.97;;
3369;SDS011;42042;51.948;7.628;2023-04-24T05:50:40;21.20;;;16.40;;
3369;SDS011;42042;51.948;7.628;2023-04-24T05:53:08;19.70;;;15.53;;
3369;SDS011;42042;51.948;7.628;2023-04-24T05:55:35;18.37;;;16.47;;
3369;SDS011;42042;51.948;7.628;2023-04-24T05:58:04;17.93;;;15.13;;
3369;SDS011;42042;51.948;7.628;2023-04-24T06:00:32;18.00;;;15.87;;
3369;SDS011;42042;51.948;7.628;2023-04-24T06:02:59;23.43;;;15.20;;
3369;SDS011;42042;51.948;7.628;2023-04-24T06:05:28;18.17;;;14.63;;
3369;SDS011;42042;51.948;7.628;2023-04-24T06:07:56;20.30;;;15.27;;
3369;SDS011;42042;51.948;7.628;2023-04-24T06:10:23;17.80;;;15.47;;
3369;SDS011;42042;51.948;7.628;2023-04-24T06:12:50;20.73;;;13.93;;
3369;SDS011;42042;51.948;7.628;2023-04-24T06:15:19;17.80;;;13.80;;
3369;SDS011;42042;51.948;7.628;2023-04-24T06:17:46;22.40;;;13.80;;
3369;SDS011;42042;51.948;7.628;2023-04-24T06:20:13;17.80;;;14.27;;
3369;SDS011;42042;51.948;7.628;2023-04-24T06:22:40;18.13;;;13.77;;
3369;SDS011;42042;51.948;7.628;2023-04-24T06:25:08;18.47;;;13.17;;
3369;SDS011;42042;51.948;7.628;2023-04-24T06:27:35;23.63;;;14.57;;
3369;SDS011;42042;51.948;7.628;2023-04-24T06:30:02;21.03;;;12.70;;
3369;SDS011;42042;51.948;7.628;2023-04-24T06:32:31;14.90;;;12.97;;
3369;SDS011;42042;51.948;7.628;2023-04-24T06:34:58;13.67;;;11.30;;
3369;SDS011;42042;51.948;7.628;2023-04-24T06:37:25;13.33;;;12.00;;
3369;SDS011;42042;51.948;7.628;2023-04-24T06:39:53;15.27;;;12.00;;
3369;SDS011;42042;51.948;7.628;2023-04-24T06:42:20;14.50;;;12.87;;
3369;SDS011;42042;51.948;7.628;2023-04-24T06:44:47;14.07;;;12.43;;
3369;SDS011;42042;51.948;7.628;2023-04-24T06:47:14;17.43;;;14.03;;
3369;SDS011;42042;51.948;7.628;2023-04-24T06:49:43;16.43;;;13.03;;
3369;SDS011;42042;51.948;7.628;2023-04-24T06:52:10;18.37;;;11.33;;
3369;SDS011;42042;51.948;7.628;2023-04-24T06:54:37;15.40;;;11.53;;
3369;SDS011;42042;51.948;7.628;2023-04-24T06:57:04;15.70;;;11.90;;
3369;SDS011;42042;51.948;7.628;2023-04-24T06:59:32;14.93;;;11.50;;
3369;SDS011;42042;51.948;7.628;2023-04-24T07:01:59;10.73;;;9.73;;
3369;SDS011;42042;51.948;7.628;2023-04-24T07:04:26;12.70;;;10.47;;
3369;SDS011;42042;51.948;7.628;2023-04-24T07:06:55;12.87;;;11.67;;
3369;SDS011;42042;51.948;7.628;2023-04-24T07:09:23;13.80;;;12.40;;
3369;SDS011;42042;51.948;7.628;2023-04-24T07:11:50;12.80;;;11.40;;
3369;SDS011;42042;51.948;7.628;2023-04-24T07:14:18;13.23;;;11.93;;
3369;SDS011;42042;51.948;7.628;2023-04-24T07:16:45;12.50;;;11.30;;
3369;SDS011;42042;51.948;7.628;2023-04-24T07:19:12;15.40;;;12.50;;
3369;SDS011;42042;51.948;7.628;2023-04-24T07:21:39;12.57;;;11.37;;
3369;SDS011;42042;51.948;7.628;2023-04-24T07:24:08;12.17;;;10.40;;
3369;SDS011;42042;51.948;7.628;2023-04-24T07:26:36;12.13;;;10.90;;
3369;SDS011;42042;51.948;7.628;2023-04-24T07:29:04;11.97;;;10.87;;
3369;SDS011;42042;51.948;7.628;2023-04-24T07:31:31;10.67;;;9.63;;
3369;SDS011;42042;51.948;7.628;2023-04-24T07:33:58;11.27;;;10.10;;
3369;SDS011;42042;51.948;7.628;2023-04-24T07:36:26;14.47;;;10.30;;
3369;SDS011;42042;51.948;7.628;2023-04-24T07:38:53;15.30;;;10.77;;
3369;SDS011;42042;51.948;7.628;2023-04-24T07:41:23;10.60;;;9.50;;
3369;SDS011;42042;51.948;7.628;2023-04-24T07:43:50;12.43;;;10.00;;
3369;SDS011;42042;51.948;7.628;2023-04-24T07:46:17;11.70;;;8.73;;
3369;SDS011;42042;51.948;7.628;2023-04-24T07:48:44;10.53;;;8.57;;
3369;SDS011;42042;51.948;7.628;2023-04-24T07:51:13;9.10;;;8.27;;
3369;SDS011;42042;51.948;7.628;2023-04-24T07:53:40;10.60;;;9.47;;
3369;SDS011;42042;51.948;7.628;2023-04-24T07:56:07;10.20;;;8.13;;
3369;SDS011;42042;51.948;7.628;2023-04-24T07:58:36;7.87;;;7.13;;
3369;SDS011;42042;51.948;7.628;2023-04-24T08:01:03;8.17;;;7.30;;
3369;SDS011;42042;51.948;7.628;2023-04-24T08:03:30;8.17;;;7.37;;
3369;SDS011;42042;51.948;7.628;2023-04-24T08:05:57;9.43;;;8.47;;
3369;SDS011;42042;51.948;7.628;2023-04-24T08:08:24;9.83;;;6.70;;
3369;SDS011;42042;51.948;7.628;2023-04-24T08:10:52;7.90;;;7.13;;
3369;SDS011;42042;51.948;7.628;2023-04-24T08:13:19;8.83;;;7.20;;
3369;SDS011;42042;51.948;7.628;2023-04-24T08:15:48;7.60;;;6.90;;
3369;SDS011;42042;51.948;7.628;2023-04-24T08:18:15;8.03;;;7.20;;
3369;SDS011;42042;51.948;7.628;2023-04-24T08:20:42;7.20;;;6.30;;
3369;SDS011;42042;51.948;7.628;2023-04-24T08:23:10;7.30;;;6.60;;
3369;SDS011;42042;51.948;7.628;2023-04-24T08:25:37;6.63;;;6.03;;
3369;SDS011;42042;51.948;7.628;2023-04-24T08:28:05;7.27;;;6.50;;
3369;SDS011;42042;51.948;7.628;2023-04-24T08:30:32;7.97;;;7.10;;
3369;SDS011;42042;51.948;7.628;2023-04-24T08:33:01;6.40;;;5.90;;
3369;SDS011;42042;51.948;7.628;2023-04-24T08:35:28;7.77;;;6.73;;
3369;SDS011;42042;51.948;7.628;2023-04-24T08:37:55;6.90;;;6.17;;
3369;SDS011;42042;51.948;7.628;2023-04-24T08:40:28;7.90;;;6.93;;
3369;SDS011;42042;51.948;7.628;2023-04-24T08:42:55;7.97;;;7.27;;
3369;SDS011;42042;51.948;7.628;2023-04-24T08:45:23;7.40;;;6.70;;
3369;SDS011;42042;51.948;7.628;2023-04-24T08:47:51;8.17;;;6.83;;
3369;SDS011;42042;51.948;7.628;2023-04-24T08:50:21;7.33;;;6.70;;
3369;SDS011;42042;51.948;7.628;2023-04-24T08:52:49;6.77;;;6.17;;
3369;SDS011;42042;51.948;7.628;2023-04-24T08:55:18;7.65;;;6.75;;
3369;SDS011;42042;51.948;7.628;2023-04-24T08:57:45;6.70;;;6.10;;
3369;SDS011;42042;51.948;7.628;2023-04-24T09:00:16;6.77;;;6.20;;
3369;SDS011;42042;51.948;7.628;2023-04-24T09:02:43;6.80;;;6.07;;
3369;SDS011;42042;51.948;7.628;2023-04-24T09:05:12;6.77;;;6.13;;
3369;SDS011;42042;51.948;7.628;2023-04-24T09:07:41;6.00;;;5.50;;
3369;SDS011;42042;51.948;7.628;2023-04-24T09:10:10;6.73;;;6.23;;
3369;SDS011;42042;51.948;7.628;2023-04-24T09:12:37;11.07;;;6.43;;
3369;SDS011;42042;51.948;7.628;2023-04-24T09:15:05;5.97;;;5.47;;
3369;SDS011;42042;51.948;7.628;2023-04-24T09:17:33;5.90;;;5.50;;
3369;SDS011;42042;51.948;7.628;2023-04-24T09:20:01;8.03;;;4.60;;
3369;SDS011;42042;51.948;7.628;2023-04-24T09:22:29;5.97;;;5.43;;
3369;SDS011;42042;51.948;7.628;2023-04-24T09:25:02;5.70;;;5.20;;
3369;SDS011;42042;51.948;7.628;2023-04-24T09:27:30;5.33;;;5.00;;
3369;SDS011;42042;51.948;7.628;2023-04-24T09:29:58;5.70;;;5.30;;
3369;SDS011;42042;51.948;7.628;2023-04-24T09:32:25;5.90;;;5.10;;
3369;SDS011;42042;51.948;7.628;2023-04-24T09:35:10;5.50;;;4.80;;
3369;SDS011;42042;51.948;7.628;2023-04-24T09:37:38;7.53;;;4.80;;
3369;SDS011;42042;51.948;7.628;2023-04-24T09:40:12;5.47;;;5.07;;
3369;SDS011;42042;51.948;7.628;2023-04-24T09:42:39;6.57;;;5.70;;
3369;SDS011;42042;51.948;7.628;2023-04-24T09:45:10;7.30;;;5.13;;
3369;SDS011;42042;51.948;7.628;2023-04-24T09:47:38;7.93;;;6.33;;
3369;SDS011;42042;51.948;7.628;2023-04-24T09:50:12;7.17;;;5.83;;
3369;SDS011;42042;51.948;7.628;2023-04-24T09:52:40;6.00;;;5.50;;
3369;SDS011;42042;51.948;7.628;2023-04-24T09:55:11;8.50;;;5.60;;
3369;SDS011;42042;51.948;7.628;2023-04-24T09:57:46;5.60;;;4.93;;
3369;SDS011;42042;51.948;7.628;2023-04-24T10:00:17;5.13;;;4.73;;
3369;SDS011;42042;51.948;7.628;2023-04-24T10:02:49;5.00;;;4.50;;
3369;SDS011;42042;51.948;7.628;2023-04-24T10:05:16;5.75;;;5.25;;
3369;SDS011;42042;51.948;7.628;2023-04-24T10:07:43;10.83;;;4.60;;
3369;SDS011;42042;51.948;7.628;2023-04-24T10:10:12;5.67;;;5.17;;
3369;SDS011;42042;51.948;7.628;2023-04-24T10:12:40;5.57;;;5.03;;
3369;SDS011;42042;51.948;7.628;2023-04-24T10:15:08;5.47;;;4.97;;
3369;SDS011;42042;51.948;7.628;2023-04-24T10:17:38;5.97;;;5.47;;
3369;SDS011;42042;51.948;7.628;2023-04-24T10:20:06;7.73;;;5.37;;
3369;SDS011;42042;51.948;7.628;2023-04-24T10:22:34;5.30;;;4.80;;
3369;SDS011;42042;51.948;7.628;2023-04-24T10:25:03;6.57;;;5.97;;
3369;SDS011;42042;51.948;7.628;2023-04-24T10:27:32;5.47;;;4.97;;
3369;SDS011;42042;51.948;7.628;2023-04-24T10:29:59;5.83;;;5.27;;
3369;SDS011;42042;51.948;7.628;2023-04-24T10:32:26;5.57;;;5.07;;
3369;SDS011;42042;51.948;7.628;2023-04-24T10:34:54;7.03;;;5.33;;
3369;SDS011;42042;51.948;7.628;2023-04-24T10:37:21;5.43;;;5.00;;
3369;SDS011;42042;51.948;7.628;2023-04-24T10:39:49;5.47;;;4.90;;
3369;SDS011;42042;51.948;7.628;2023-04-24T10:42:19;5.30;;;4.80;;
3369;SDS011;42042;51.948;7.628;2023-04-24T10:44:48;6.00;;;5.40;;
3369;SDS011;42042;51.948;7.628;2023-04-24T10:47:15;6.00;;;5.40;;
3369;SDS011;42042;51.948;7.628;2023-04-24T10:49:42;9.40;;;6.85;;
3369;SDS011;42042;51.948;7.628;2023-04-24T10:52:10;6.93;;;5.80;;
3369;SDS011;42042;51.948;7.628;2023-04-24T10:54:41;7.18;;;6.47;;
3369;SDS011;42042;51.948;7.628;2023-04-24T10:57:27;9.15;;;5.45;;
3369;SDS011;42042;51.948;7.628;2023-04-24T11:00:12;8.20;;;6.32;;
3369;SDS011;42042;51.948;7.628;2023-04-24T11:02:40;8.90;;;7.00;;
3369;SDS011;42042;51.948;7.628;2023-04-24T11:05:14;8.18;;;6.88;;
3369;SDS011;42042;51.948;7.628;2023-04-24T11:10:28;6.93;;;5.03;;
3369;SDS011;42042;51.948;7.628;2023-04-24T11:12:55;7.65;;;6.40;;
3369;SDS011;42042;51.948;7.628;2023-04-24T11:15:23;9.00;;;6.97;;
3369;SDS011;42042;51.948;7.628;2023-04-24T11:17:51;9.80;;;5.85;;
3369;SDS011;42042;51.948;7.628;2023-04-24T11:20:23;11.73;;;6.53;;
3369;SDS011;42042;51.948;7.628;2023-04-24T11:22:52;9.13;;;5.80;;
3369;SDS011;42042;51.948;7.628;2023-04-24T11:25:20;6.78;;;6.18;;
3369;SDS011;42042;51.948;7.628;2023-04-24T11:27:48;10.85;;;6.05;;
3369;SDS011;42042;51.948;7.628;2023-04-24T11:30:17;8.50;;;7.28;;
3369;SDS011;42042;51.948;7.628;2023-04-24T11:32:48;10.50;;;7.13;;
3369;SDS011;42042;51.948;7.628;2023-04-24T11:35:18;6.70;;;6.10;;
3369;SDS011;42042;51.948;7.628;2023-04-24T11:37:46;9.07;;;6.75;;
3369;SDS011;42042;51.948;7.628;2023-04-24T11:40:14;11.18;;;5.70;;
3369;SDS011;42042;51.948;7.628;2023-04-24T11:42:42;10.25;;;6.50;;
3369;SDS011;42042;51.948;7.628;2023-04-24T11:45:10;7.57;;;5.65;;
3369;SDS011;42042;51.948;7.628;2023-04-24T11:47:38;7.93;;;6.00;;
3369;SDS011;42042;51.948;7.628;2023-04-24T11:50:08;10.07;;;5.50;;
3369;SDS011;42042;51.948;7.628;2023-04-24T11:52:36;8.98;;;6.53;;
3369;SDS011;42042;51.948;7.628;2023-04-24T11:55:05;6.22;;;5.55;;
3369;SDS011;42042;51.948;7.628;2023-04-24T11:57:33;8.93;;;5.75;;
3369;SDS011;42042;51.948;7.628;2023-04-24T12:00:01;8.63;;;6.30;;
3369;SDS011;42042;51.948;7.628;2023-04-24T12:02:29;12.98;;;6.70;;
3369;SDS011;42042;51.948;7.628;2023-04-24T12:04:56;6.97;;;5.85;;
3369;SDS011;42042;51.948;7.628;2023-04-24T12:07:24;8.23;;;6.38;;
3369;SDS011;42042;51.948;7.628;2023-04-24T12:09:55;16.55;;;7.45;;
3369;SDS011;42042;51.948;7.628;2023-04-24T12:12:25;9.63;;;8.02;;
3369;SDS011;42042;51.948;7.628;2023-04-24T12:14:52;8.30;;;7.40;;
3369;SDS011;42042;51.948;7.628;2023-04-24T12:17:23;15.10;;;8.50;;
3369;SDS011;42042;51.948;7.628;2023-04-24T12:19:51;10.07;;;7.22;;
3369;SDS011;42042;51.948;7.628;2023-04-24T12:22:18;18.55;;;9.10;;
3369;SDS011;42042;51.948;7.628;2023-04-24T12:27:38;14.02;;;8.13;;
3369;SDS011;42042;51.948;7.628;2023-04-24T12:30:05;12.13;;;7.70;;
3369;SDS011;42042;51.948;7.628;2023-04-24T12:32:40;12.35;;;7.10;;
3369;SDS011;42042;51.948;7.628;2023-04-24T12:35:07;10.55;;;7.50;;
3369;SDS011;42042;51.948;7.628;2023-04-24T12:37:34;13.35;;;6.47;;
3369;SDS011;42042;51.948;7.628;2023-04-24T12:40:03;13.90;;;6.40;;
3369;SDS011;42042;51.948;7.628;2023-04-24T12:42:31;11.30;;;7.43;;
3369;SDS011;42042;51.948;7.628;2023-04-24T12:45:01;11.40;;;7.30;;
3369;SDS011;42042;51.948;7.628;2023-04-24T12:47:29;13.52;;;7.15;;
3369;SDS011;42042;51.948;7.628;2023-04-24T12:49:56;13.18;;;6.50;;
3369;SDS011;42042;51.948;7.628;2023-04-24T12:52:23;16.08;;;8.10;;
3369;SDS011;42042;51.948;7.628;2023-04-24T12:54:52;13.27;;;6.82;;
3369;SDS011;42042;51.948;7.628;2023-04-24T12:57:20;14.88;;;7.38;;
3369;SDS011;42042;51.948;7.628;2023-04-24T12:59:47;6.65;;;4.55;;
3369;SDS011;42042;51.948;7.628;2023-04-24T13:02:16;10.85;;;6.10;;
3369;SDS011;42042;51.948;7.628;2023-04-24T13:04:43;9.68;;;5.38;;
3369;SDS011;42042;51.948;7.628;2023-04-24T13:07:11;8.95;;;4.80;;
3369;SDS011;42042;51.948;7.628;2023-04-24T13:09:39;11.50;;;5.40;;
3369;SDS011;42042;51.948;7.628;2023-04-24T13:12:06;8.90;;;5.55;;
3369;SDS011;42042;51.948;7.628;2023-04-24T13:14:33;15.57;;;4.70;;
3369;SDS011;42042;51.948;7.628;2023-04-24T13:17:01;12.00;;;5.32;;
3369;SDS011;42042;51.948;7.628;2023-04-24T13:19:34;7.00;;;5.70;;
3369;SDS011;42042;51.948;7.628;2023-04-24T13:22:02;19.45;;;6.25;;
3369;SDS011;42042;51.948;7.628;2023-04-24T13:24:29;8.90;;;5.00;;
3369;SDS011;42042;51.948;7.628;2023-04-24T13:26:57;11.17;;;6.27;;
3369;SDS011;42042;51.948;7.628;2023-04-24T13:29:25;13.95;;;6.25;;
3369;SDS011;42042;51.948;7.628;2023-04-24T13:31:52;13.10;;;6.40;;
3369;SDS011;42042;51.948;7.628;2023-04-24T13:34:20;9.83;;;5.07;;
3369;SDS011;42042;51.948;7.628;2023-04-24T13:36:48;15.32;;;5.78;;
3369;SDS011;42042;51.948;7.628;2023-04-24T13:39:16;9.60;;;5.43;;
3369;SDS011;42042;51.948;7.628;2023-04-24T13:41:44;9.87;;;4.67;;
3369;SDS011;42042;51.948;7.628;2023-04-24T13:44:12;7.22;;;5.30;;
3369;SDS011;42042;51.948;7.628;2023-04-24T13:46:40;5.90;;;4.30;;
3369;SDS011;42042;51.948;7.628;2023-04-24T13:49:08;7.90;;;4.40;;
3369;SDS011;42042;51.948;7.628;2023-04-24T13:51:35;4.80;;;3.60;;
3369;SDS011;42042;51.948;7.628;2023-04-24T13:54:04;4.90;;;2.87;;
3369;SDS011;42042;51.948;7.628;2023-04-24T13:56:31;3.67;;;3.13;;
3369;SDS011;42042;51.948;7.628;2023-04-24T13:58:58;4.70;;;2.77;;
3369;SDS011;42042;51.948;7.628;2023-04-24T14:01:26;5.20;;;3.20;;
3369;SDS011;42042;51.948;7.628;2023-04-24T14:03:53;4.88;;;2.85;;
3369;SDS011;42042;51.948;7.628;2023-04-24T14:06:21;3.88;;;2.80;;
3369;SDS011;42042;51.948;7.628;2023-04-24T14:08:48;6.63;;;2.40;;
3369;SDS011;42042;51.948;7.628;2023-04-24T14:11:17;6.00;;;2.95;;
3369;SDS011;42042;51.948;7.628;2023-04-24T14:13:44;5.20;;;2.77;;
3369;SDS011;42042;51.948;7.628;2023-04-24T14:16:12;6.20;;;3.40;;
3369;SDS011;42042;51.948;7.628;2023-04-24T14:18:40;2.40;;;2.20;;
3369;SDS011;42042;51.948;7.628;2023-04-24T14:21:07;4.03;;;2.53;;
3369;SDS011;42042;51.948;7.628;2023-04-24T14:23:34;3.27;;;2.60;;
3369;SDS011;42042;51.948;7.628;2023-04-24T14:26:02;3.10;;;2.60;;
3369;SDS011;42042;51.948;7.628;2023-04-24T14:28:30;2.17;;;2.07;;
3369;SDS011;42042;51.948;7.628;2023-04-24T14:30:57;4.20;;;2.40;;
3369;SDS011;42042;51.948;7.628;2023-04-24T14:33:25;2.77;;;2.47;;
3369;SDS011;42042;51.948;7.628;2023-04-24T14:35:52;3.23;;;2.70;;
3369;SDS011;42042;51.948;7.628;2023-04-24T14:38:19;4.70;;;2.70;;
3369;SDS011;42042;51.948;7.628;2023-04-24T14:40:46;3.50;;;3.03;;
3369;SDS011;42042;51.948;7.628;2023-04-24T14:43:14;3.10;;;2.80;;
3369;SDS011;42042;51.948;7.628;2023-04-24T14:45:42;2.90;;;2.70;;
3369;SDS011;42042;51.948;7.628;2023-04-24T14:48:09;4.75;;;2.92;;
3369;SDS011;42042;51.948;7.628;2023-04-24T14:50:37;3.57;;;3.17;;
3369;SDS011;42042;51.948;7.628;2023-04-24T14:53:04;3.20;;;2.90;;
3369;SDS011;42042;51.948;7.628;2023-04-24T14:55:31;2.88;;;2.63;;
3369;SDS011;42042;51.948;7.628;2023-04-24T14:58:01;3.40;;;3.10;;
3369;SDS011;42042;51.948;7.628;2023-04-24T15:00:28;4.85;;;3.15;;
3369;SDS011;42042;51.948;7.628;2023-04-24T15:02:56;5.03;;;2.95;;